Time;durP1;ratioP1;P1;durP2;ratioP2;P2;SDS_P1;SDS_P2;PMS_P1;PMS_P2;Temp;Humidity;BMP_temperature;BMP_pressure;BME280_temperature;BME280_humidity;BME280_pressure;Samples;Min_cycle;Max_cycle;Signal;HPM_P1;HPM_P2
2023/06/20 00:01:57;;;;;;;13.03;11.93;;;;;;;18.97;100.00;99206.44;5113656;28;20576;-76
2023/06/20 00:04:24;;;;;;;12.67;11.57;;;;;;;18.98;100.00;99219.75;5113310;28;20232;-75
2023/06/20 00:06:51;;;;;;;13.07;11.87;;;;;;;18.98;100.00;99216.22;5099635;28;20538;-79
2023/06/20 00:09:17;;;;;;;12.67;11.67;;;;;;;18.94;100.00;99217.88;5110460;28;20308;-76
2023/06/20 00:11:44;;;;;;;12.43;11.43;;;;;;;18.93;100.00;99225.22;5106847;28;20197;-76
2023/06/20 00:14:12;;;;;;;12.80;11.80;;;;;;;18.92;100.00;99227.09;5107942;28;20197;-75
2023/06/20 00:16:39;;;;;;;13.40;12.20;;;;;;;18.90;100.00;99229.28;5109795;28;20293;-78
2023/06/20 00:19:06;;;;;;;12.37;11.37;;;;;;;18.92;100.00;99229.00;5108630;28;20715;-76
2023/06/20 00:21:33;;;;;;;12.87;11.87;;;;;;;18.87;100.00;99224.44;5113463;28;20193;-75
2023/06/20 00:23:59;;;;;;;14.07;12.83;;;;;;;18.79;100.00;99221.50;5113465;28;20206;-77
2023/06/20 00:26:26;;;;;;;13.87;12.67;;;;;;;18.74;100.00;99208.78;5112639;28;20190;-77
2023/06/20 00:28:53;;;;;;;14.07;12.83;;;;;;;18.71;100.00;99220.19;5099832;28;20266;-76
2023/06/20 00:31:20;;;;;;;13.33;12.13;;;;;;;18.66;100.00;99220.25;5088824;28;20257;-76
2023/06/20 00:33:47;;;;;;;13.20;12.00;;;;;;;18.60;100.00;99221.38;5114251;28;20596;-76
2023/06/20 00:36:14;;;;;;;13.43;12.33;;;;;;;18.55;100.00;99217.88;5113837;28;20660;-76
2023/06/20 00:38:48;;;;;;;14.23;13.00;;;;;;;18.53;100.00;99215.44;5112301;28;20204;-77
2023/06/20 00:41:16;;;;;;;14.00;12.90;;;;;;;18.53;100.00;99212.72;5114035;28;20191;-76
2023/06/20 00:43:44;;;;;;;13.33;12.23;;;;;;;18.54;100.00;99208.94;5094534;28;20664;-77
2023/06/20 00:46:11;;;;;;;13.70;12.57;;;;;;;18.52;100.00;99210.28;5112943;28;20194;-76
2023/06/20 00:48:38;;;;;;;13.27;12.27;;;;;;;18.52;100.00;99213.81;5109455;28;20197;-76
2023/06/20 00:51:05;;;;;;;14.33;13.00;;;;;;;18.51;100.00;99208.66;5113839;28;20301;-76
2023/06/20 00:53:31;;;;;;;13.00;11.97;;;;;;;18.45;100.00;99210.59;5112848;28;20203;-75
2023/06/20 00:55:59;;;;;;;14.10;12.80;;;;;;;18.41;100.00;99207.63;5092826;28;20228;-76
2023/06/20 00:58:26;;;;;;;13.57;12.47;;;;;;;18.39;100.00;99211.69;5113392;28;20568;-76
2023/06/20 01:00:52;;;;;;;14.00;12.90;;;;;;;18.33;100.00;99204.69;5106721;28;20202;-77
2023/06/20 01:03:19;;;;;;;13.50;12.40;;;;;;;18.29;100.00;99201.72;5088312;28;20222;-78
2023/06/20 01:05:55;;;;;;;14.30;13.13;;;;;;;18.22;100.00;99195.81;5094121;28;20229;-77
2023/06/20 01:08:28;;;;;;;14.27;13.07;;;;;;;18.18;100.00;99191.22;5074522;28;20206;-78
2023/06/20 01:11:02;;;;;;;14.63;13.33;;;;;;;18.13;100.00;99191.25;5081524;28;20229;-78
2023/06/20 01:14:02;;;;;;;14.80;13.60;;;;;;;18.10;100.00;99183.69;5098002;28;20213;-77
2023/06/20 01:16:42;;;;;;;14.47;13.13;;;;;;;18.09;100.00;99185.59;5068723;28;20219;-79
2023/06/20 01:19:31;;;;;;;14.73;13.53;;;;;;;18.10;100.00;99184.50;5105907;28;20248;-78
2023/06/20 01:22:00;;;;;;;15.50;14.10;;;;;;;18.08;100.00;99194.81;5111206;28;20253;-78
2023/06/20 01:24:31;;;;;;;15.47;14.13;;;;;;;18.03;100.00;99192.94;5111881;28;20591;-75
2023/06/20 01:27:10;;;;;;;14.67;13.47;;;;;;;17.98;100.00;99190.22;5112079;28;20195;-76
2023/06/20 01:29:40;;;;;;;15.37;14.03;;;;;;;17.96;100.00;99184.28;5094983;28;20240;-78
2023/06/20 01:32:12;;;;;;;16.03;14.63;;;;;;;17.97;100.00;99190.50;5094464;28;20746;-79
2023/06/20 01:34:46;;;;;;;16.40;15.10;;;;;;;17.92;100.00;99185.91;5077526;28;20200;-76
2023/06/20 01:37:17;;;;;;;16.00;14.77;;;;;;;17.92;100.00;99175.06;5073764;28;20209;-77
2023/06/20 01:39:46;;;;;;;15.90;14.60;;;;;;;17.85;100.00;99177.28;5091357;28;20577;-76
2023/06/20 01:42:14;;;;;;;16.83;15.47;;;;;;;17.81;100.00;99183.53;5075512;28;20191;-75
2023/06/20 01:44:41;;;;;;;16.27;14.97;;;;;;;17.77;100.00;99186.00;5111587;28;20194;-75
2023/06/20 01:47:10;;;;;;;16.43;15.07;;;;;;;17.73;100.00;99184.91;5111486;28;20523;-75
2023/06/20 01:49:38;;;;;;;16.70;15.20;;;;;;;17.72;100.00;99186.03;5066296;28;20257;-75
2023/06/20 01:52:05;;;;;;;15.83;14.53;;;;;;;17.65;100.00;99188.19;5077807;28;20201;-75
2023/06/20 01:54:34;;;;;;;16.10;14.80;;;;;;;17.61;100.00;99179.00;5093802;28;20194;-78
2023/06/20 01:57:02;;;;;;;16.90;15.50;;;;;;;17.58;100.00;99179.53;5076148;28;20246;-77
2023/06/20 01:59:30;;;;;;;17.30;15.80;;;;;;;17.52;100.00;99175.22;5093131;28;20323;-76
2023/06/20 02:01:59;;;;;;;18.70;16.93;;;;;;;17.49;100.00;99170.34;5073922;28;20564;-75
2023/06/20 02:04:27;;;;;;;19.40;17.80;;;;;;;17.43;100.00;99160.63;5085164;28;20234;-75
2023/06/20 02:06:55;;;;;;;18.80;17.30;;;;;;;17.42;100.00;99161.69;5089951;28;20193;-75
2023/06/20 02:09:22;;;;;;;18.07;16.57;;;;;;;17.42;100.00;99161.69;5088364;28;20217;-75
2023/06/20 02:11:49;;;;;;;18.47;16.87;;;;;;;17.35;100.00;99156.59;5106782;28;20190;-76
2023/06/20 02:14:16;;;;;;;18.40;16.90;;;;;;;17.35;100.00;99166.59;5071770;28;20205;-75
2023/06/20 02:16:43;;;;;;;18.40;16.90;;;;;;;17.31;100.00;99169.03;5087420;28;20194;-75
2023/06/20 02:19:10;;;;;;;18.87;17.40;;;;;;;17.28;100.00;99172.28;5096254;28;20218;-74
2023/06/20 02:21:38;;;;;;;18.73;17.13;;;;;;;17.23;100.00;99172.31;5082731;28;20212;-74
2023/06/20 02:24:05;;;;;;;18.47;16.90;;;;;;;17.20;100.00;99174.75;5092060;28;20560;-74
2023/06/20 02:26:34;;;;;;;19.43;17.77;;;;;;;17.16;100.00;99183.44;5093669;28;20228;-76
2023/06/20 02:29:07;;;;;;;19.23;17.63;;;;;;;17.14;100.00;99185.59;5076963;28;20207;-75
2023/06/20 02:31:37;;;;;;;19.10;17.40;;;;;;;17.17;100.00;99189.63;5076650;28;20197;-75
2023/06/20 02:34:07;;;;;;;18.00;16.60;;;;;;;17.13;100.00;99185.84;5071467;28;20197;-75
2023/06/20 02:36:34;;;;;;;20.73;18.97;;;;;;;17.12;100.00;99185.03;5071260;28;20206;-75
2023/06/20 02:39:01;;;;;;;22.53;20.73;;;;;;;17.09;100.00;99184.78;5094168;28;20186;-76
2023/06/20 02:41:28;;;;;;;21.30;19.50;;;;;;;17.08;100.00;99177.72;5077332;28;20205;-75
2023/06/20 02:43:56;;;;;;;21.40;19.47;;;;;;;17.07;100.00;99182.38;5111903;28;20190;-75
2023/06/20 02:46:43;;;;;;;21.87;19.97;;;;;;;17.11;100.00;99182.63;5111690;28;20695;-75
2023/06/20 02:49:24;;;;;;;21.77;19.87;;;;;;;17.10;100.00;99187.22;5060415;28;20213;-75
2023/06/20 02:52:02;;;;;;;21.33;19.63;;;;;;;17.11;100.00;99193.44;5083838;28;20195;-77
2023/06/20 02:54:52;;;;;;;21.03;19.33;;;;;;;17.10;100.00;99189.09;5081946;28;20240;-75
2023/06/20 02:57:20;;;;;;;22.00;20.30;;;;;;;17.12;100.00;99192.38;5057328;28;20221;-75
2023/06/20 02:59:59;;;;;;;22.77;20.83;;;;;;;17.10;100.00;99187.22;5054907;28;20196;-75
2023/06/20 03:02:29;;;;;;;22.23;20.33;;;;;;;17.30;100.00;99191.78;5065294;28;20213;-76
2023/06/20 03:04:57;;;;;;;23.27;21.33;;;;;;;17.20;100.00;99191.81;5073724;28;20250;-76
2023/06/20 03:07:26;;;;;;;22.17;20.27;;;;;;;17.15;100.00;99187.22;5096857;28;20273;-78
2023/06/20 03:09:54;;;;;;;22.60;20.60;;;;;;;17.20;100.00;99191.00;5065469;28;20220;-77
2023/06/20 03:12:20;;;;;;;22.10;20.23;;;;;;;17.23;100.00;99185.84;5082511;28;20216;-76
2023/06/20 03:14:47;;;;;;;23.07;21.17;;;;;;;17.30;100.00;99190.97;5078820;28;20211;-77
2023/06/20 03:17:14;;;;;;;22.03;20.27;;;;;;;17.35;100.00;99189.09;5091235;28;20195;-77
2023/06/20 03:19:40;;;;;;;21.37;19.67;;;;;;;17.44;100.00;99192.03;5096112;28;20255;-77
2023/06/20 03:22:12;;;;;;;20.77;19.13;;;;;;;17.52;100.00;99192.28;5093187;28;20245;-78
2023/06/20 03:24:38;;;;;;;20.90;19.10;;;;;;;17.58;100.00;99193.94;5093330;28;20261;-78
2023/06/20 03:27:05;;;;;;;20.23;18.63;;;;;;;17.67;100.00;99205.00;5092828;28;20667;-77
2023/06/20 03:29:32;;;;;;;21.57;19.67;;;;;;;17.74;100.00;99201.97;5115630;28;20275;-77
2023/06/20 03:31:59;;;;;;;22.13;20.30;;;;;;;17.80;100.00;99209.81;5097190;28;20207;-78
2023/06/20 03:34:26;;;;;;;22.63;20.73;;;;;;;17.87;100.00;99210.31;5097380;28;20208;-77
2023/06/20 03:36:53;;;;;;;21.17;19.33;;;;;;;17.97;100.00;99209.47;5094770;28;20238;-77
2023/06/20 03:39:19;;;;;;;22.17;20.23;;;;;;;18.10;100.00;99205.38;5096734;28;20198;-77
2023/06/20 03:41:46;;;;;;;21.27;19.57;;;;;;;18.20;100.00;99205.28;5096966;28;20199;-77
2023/06/20 03:44:13;;;;;;;20.90;19.30;;;;;;;18.35;100.00;99213.34;5096019;28;20196;-77
2023/06/20 03:46:40;;;;;;;22.03;20.00;;;;;;;18.50;100.00;99224.13;5096945;28;20198;-76
2023/06/20 03:49:07;;;;;;;21.50;19.70;;;;;;;18.64;100.00;99219.72;5106826;28;20204;-77
2023/06/20 03:51:34;;;;;;;21.70;20.00;;;;;;;18.74;100.00;99225.06;5084281;28;20228;-77
2023/06/20 03:54:03;;;;;;;22.07;20.27;;;;;;;18.87;100.00;99219.00;5095599;28;20199;-77
2023/06/20 03:56:30;;;;;;;20.87;19.27;;;;;;;18.99;100.00;99223.25;5094072;28;20261;-77
2023/06/20 03:58:57;;;;;;;20.50;18.90;;;;;;;19.11;100.00;99220.97;5109571;28;20219;-77
2023/06/20 04:01:24;;;;;;;21.70;19.73;;;;;;;19.16;100.00;99220.94;5114897;28;20194;-78
2023/06/20 04:03:54;;;;;;;21.47;19.67;;;;;;;19.25;100.00;99222.75;5096883;28;20234;-76
2023/06/20 04:06:29;;;;;;;20.93;19.17;;;;;;;19.36;100.00;99218.81;5093518;28;20200;-77
2023/06/20 04:08:58;;;;;;;20.93;19.13;;;;;;;19.77;100.00;99226.59;5106505;28;20186;-77
2023/06/20 04:11:25;;;;;;;20.77;18.97;;;;;;;20.03;100.00;99225.19;5079623;28;20750;-77
2023/06/20 04:13:51;;;;;;;21.17;19.27;;;;;;;20.22;100.00;99234.19;5114837;28;20221;-78
2023/06/20 04:16:18;;;;;;;21.40;19.60;;;;;;;20.58;100.00;99234.53;5096389;28;20225;-78
2023/06/20 04:18:45;;;;;;;20.00;18.23;;;;;;;20.99;100.00;99233.91;5095133;28;20735;-78
2023/06/20 04:21:11;;;;;;;19.80;18.20;;;;;;;21.49;100.00;99227.63;5114455;28;20195;-78
2023/06/20 04:23:38;;;;;;;20.10;18.30;;;;;;;22.36;100.00;99230.25;5096496;28;20200;-76
2023/06/20 04:26:07;;;;;;;19.80;18.10;;;;;;;22.65;100.00;99221.69;5092050;28;20202;-78
2023/06/20 04:28:34;;;;;;;20.67;18.60;;;;;;;22.32;100.00;99217.50;5114652;28;20246;-77
2023/06/20 04:31:01;;;;;;;20.73;18.93;;;;;;;21.85;100.00;99205.13;5114195;28;20230;-79
2023/06/20 04:33:27;;;;;;;20.47;18.60;;;;;;;22.22;100.00;99213.09;5114766;28;20244;-77
2023/06/20 04:35:59;;;;;;;20.55;18.67;;;;;;;23.44;100.00;99211.03;5095978;28;20719;-78
2023/06/20 04:38:30;;;;;;;20.50;18.90;;;;;;;24.64;100.00;99220.69;5075513;28;20226;-77
2023/06/20 04:41:00;;;;;;;20.02;18.25;;;;;;;25.13;100.00;99227.63;5095308;28;20245;-78
2023/06/20 04:43:27;;;;;;;20.40;18.77;;;;;;;24.33;100.00;99229.88;5095829;28;20674;-77
2023/06/20 04:45:56;;;;;;;20.85;19.15;;;;;;;23.65;100.00;99224.97;5092683;28;20191;-77
2023/06/20 04:48:30;;;;;;;20.85;19.05;;;;;;;23.39;100.00;99223.97;5092361;28;20200;-78
2023/06/20 04:50:57;;;;;;;20.13;18.42;;;;;;;23.16;100.00;99223.22;5110229;28;20298;-77
2023/06/20 04:53:25;;;;;;;20.45;18.75;;;;;;;23.09;100.00;99231.84;5077695;28;20200;-77
2023/06/20 04:55:53;;;;;;;20.45;18.85;;;;;;;22.85;100.00;99233.28;5105305;28;20187;-78
2023/06/20 04:58:19;;;;;;;20.52;18.65;;;;;;;22.88;100.00;99238.91;5084443;28;20689;-78
2023/06/20 05:00:48;;;;;;;19.67;17.98;;;;;;;22.93;100.00;99235.25;5103896;28;20256;-77
2023/06/20 05:03:15;;;;;;;19.75;17.83;;;;;;;22.87;100.00;99231.84;5083016;28;20259;-77
2023/06/20 05:05:41;;;;;;;20.10;18.40;;;;;;;23.04;100.00;99240.19;5106465;28;20227;-78
2023/06/20 05:08:09;;;;;;;19.23;17.52;;;;;;;23.15;100.00;99243.44;5083467;28;20783;-77
2023/06/20 05:10:35;;;;;;;19.15;17.63;;;;;;;23.20;100.00;99240.59;5093349;28;20226;-77
2023/06/20 05:13:02;;;;;;;19.10;17.58;;;;;;;23.39;100.00;99235.72;5113724;28;20636;-77
2023/06/20 05:15:29;;;;;;;18.35;16.95;;;;;;;;;;5113652;28;20659;-77
2023/06/20 05:17:55;;;;;;;18.13;16.63;;;;;;;23.58;100.00;99241.81;5106591;28;20192;-77
2023/06/20 05:20:22;;;;;;;18.55;17.05;;;;;;;23.75;100.00;99241.06;5113355;28;20274;-78
2023/06/20 05:22:49;;;;;;;17.67;15.98;;;;;;;23.86;100.00;99238.88;5112142;28;20195;-78
2023/06/20 05:25:16;;;;;;;17.45;16.10;;;;;;;23.99;100.00;99233.28;5113453;28;20276;-77
2023/06/20 05:27:43;;;;;;;18.05;16.65;;;;;;;24.25;100.00;99246.28;5113130;28;20712;-77
2023/06/20 05:30:10;;;;;;;16.17;14.88;;;;;;;24.22;100.00;99246.88;5110428;28;20671;-76
2023/06/20 05:32:37;;;;;;;16.15;14.75;;;;;;;24.29;100.00;99248.06;5111294;28;20198;-77
2023/06/20 05:35:07;;;;;;;15.23;13.98;;;;;;;24.53;100.00;99248.41;5113519;28;20193;-78
2023/06/20 05:37:34;;;;;;;15.48;14.25;;;;;;;24.61;100.00;99259.69;5111410;28;20562;-78
2023/06/20 05:40:01;;;;;;;15.60;14.20;;;;;;;24.79;100.00;99261.31;5111994;28;20263;-78
2023/06/20 05:42:27;;;;;;;15.70;14.13;;;;;;;24.87;100.00;99246.88;5108216;28;20199;-77
2023/06/20 05:44:54;;;;;;;15.00;13.50;;;;;;;25.01;100.00;99249.44;5112182;28;20252;-78
2023/06/20 05:47:21;;;;;;;15.98;13.73;;;;;;;25.21;100.00;99259.72;5111020;28;20703;-77
2023/06/20 05:49:47;;;;;;;14.85;13.15;;;;;;;25.31;100.00;99259.38;5104800;28;20195;-77
2023/06/20 05:52:14;;;;;;;17.17;13.43;;;;;;;25.43;100.00;99260.31;5110967;28;20217;-77
2023/06/20 05:54:43;;;;;;;14.85;13.50;;;;;;;25.63;100.00;99267.06;5112954;28;20683;-78
2023/06/20 05:57:10;;;;;;;15.15;12.80;;;;;;;25.72;100.00;99251.38;5101423;28;20186;-77
2023/06/20 05:59:37;;;;;;;14.07;12.80;;;;;;;25.93;100.00;99256.16;5112823;28;20214;-77
2023/06/20 06:02:05;;;;;;;14.48;12.55;;;;;;;26.05;100.00;99264.47;5112511;28;20244;-76
2023/06/20 06:04:33;;;;;;;13.80;12.60;;;;;;;26.18;100.00;99268.94;5112969;28;20585;-77
2023/06/20 06:07:00;;;;;;;15.23;12.40;;;;;;;26.18;100.00;99269.75;5108089;28;20739;-78
2023/06/20 06:09:27;;;;;;;12.40;11.20;;;;;;;26.31;100.00;99278.94;5112586;28;20199;-78
2023/06/20 06:11:54;;;;;;;12.07;10.88;;;;;;;26.48;100.00;99272.50;5112270;28;20302;-77
2023/06/20 06:14:21;;;;;;;12.85;11.75;;;;;;;26.49;100.00;99268.63;5112371;28;20200;-77
2023/06/20 06:16:47;;;;;;;11.77;10.77;;;;;;;26.62;100.00;99275.81;5112715;28;20219;-78
2023/06/20 06:19:14;;;;;;;12.45;11.52;;;;;;;26.80;100.00;99279.25;5102749;28;20656;-78
2023/06/20 06:21:41;;;;;;;13.10;11.68;;;;;;;27.00;100.00;99272.97;5112118;28;20219;-78
2023/06/20 06:24:09;;;;;;;12.63;11.40;;;;;;;27.18;100.00;99266.16;5112523;28;20192;-77
2023/06/20 06:26:36;;;;;;;11.48;10.68;;;;;;;27.35;100.00;99262.44;5110706;28;20564;-77
2023/06/20 06:29:04;;;;;;;11.15;10.05;;;;;;;27.45;100.00;99262.00;5094096;28;20200;-77
2023/06/20 06:31:33;;;;;;;11.18;10.18;;;;;;;27.66;100.00;99260.03;5111707;28;20641;-79
2023/06/20 06:34:02;;;;;;;10.18;9.35;;;;;;;27.90;100.00;99262.03;5094096;28;20545;-78
2023/06/20 06:36:31;;;;;;;10.95;10.02;;;;;;;28.01;100.00;99257.66;5092915;28;20188;-78
2023/06/20 06:38:58;;;;;;;11.20;10.18;;;;;;;28.24;100.00;99258.84;5094252;28;20214;-78
2023/06/20 06:41:25;;;;;;;11.68;10.57;;;;;;;28.45;100.00;99267.78;5111714;28;20244;-77
2023/06/20 06:43:52;;;;;;;13.25;11.68;;;;;;;28.62;100.00;99263.16;5111005;28;20248;-79
2023/06/20 06:46:21;;;;;;;13.35;12.10;;;;;;;28.81;100.00;99264.16;5104556;28;20286;-77
2023/06/20 06:48:49;;;;;;;13.40;12.13;;;;;;;28.97;100.00;99264.25;5111751;28;20221;-77
2023/06/20 06:51:16;;;;;;;13.40;12.20;;;;;;;29.04;100.00;99261.69;5111454;28;20295;-78
2023/06/20 06:53:42;;;;;;;11.90;10.80;;;;;;;29.36;100.00;99259.03;5103413;28;20249;-78
2023/06/20 06:56:09;;;;;;;11.57;9.93;;;;;;;29.85;100.00;99265.88;5105347;28;20317;-77
2023/06/20 06:58:36;;;;;;;12.13;10.15;;;;;;;29.98;100.00;99263.84;5108217;28;20212;-77
2023/06/20 07:01:02;;;;;;;11.48;10.30;;;;;;;30.29;100.00;99252.75;5106847;28;20203;-78
2023/06/20 07:03:29;;;;;;;10.85;9.75;;;;;;;30.63;98.06;99248.41;5108071;28;20652;-78
2023/06/20 07:05:56;;;;;;;13.40;9.93;;;;;;;30.91;96.99;99248.22;5107139;28;20662;-78
2023/06/20 07:08:23;;;;;;;10.70;9.77;;;;;;;31.44;95.64;99247.34;5104575;28;20195;-77
2023/06/20 07:10:51;;;;;;;10.20;8.68;;;;;;;31.54;86.37;99248.72;5110681;28;20272;-78
2023/06/20 07:13:18;;;;;;;9.88;8.32;;;;;;;31.51;84.27;99257.72;5108988;28;20206;-79
2023/06/20 07:15:44;;;;;;;9.13;8.43;;;;;;;31.53;85.49;99249.06;5109955;28;20662;-79
2023/06/20 07:18:11;;;;;;;9.20;7.80;;;;;;;31.52;84.25;99248.25;5103635;28;20258;-79
2023/06/20 07:20:38;;;;;;;8.07;7.40;;;;;;;31.58;79.93;99251.56;5112318;28;20547;-79
2023/06/20 07:23:05;;;;;;;8.48;7.60;;;;;;;31.44;77.46;99257.63;5106103;28;20211;-80
2023/06/20 07:25:31;;;;;;;9.07;7.90;;;;;;;31.54;77.05;99257.03;5108008;28;20187;-79
2023/06/20 07:27:58;;;;;;;8.48;7.80;;;;;;;31.54;77.04;99253.44;5108680;28;20212;-79
2023/06/20 07:30:25;;;;;;;10.48;7.80;;;;;;;31.43;76.05;99256.00;5107912;28;20222;-80
2023/06/20 07:32:51;;;;;;;8.77;8.00;;;;;;;31.45;78.09;99254.47;5108807;28;20693;-79
2023/06/20 07:35:18;;;;;;;8.48;7.78;;;;;;;31.36;80.37;99253.91;5102240;28;20271;-79
2023/06/20 07:37:45;;;;;;;8.65;7.85;;;;;;;31.29;81.66;99251.00;5102658;28;20227;-78
2023/06/20 07:40:12;;;;;;;8.70;8.10;;;;;;;31.15;82.01;99247.16;5103779;28;20240;-78
2023/06/20 07:42:38;;;;;;;9.80;8.93;;;;;;;30.93;84.01;99256.97;5104542;28;20221;-78
2023/06/20 07:45:05;;;;;;;9.18;8.38;;;;;;;30.57;84.49;99255.38;5096484;28;20661;-78
2023/06/20 07:47:32;;;;;;;9.63;8.82;;;;;;;30.35;85.18;99251.31;5098265;28;20195;-79
2023/06/20 07:49:59;;;;;;;8.50;7.80;;;;;;;30.20;84.47;99249.38;5097598;28;20192;-79
2023/06/20 07:52:27;;;;;;;8.90;8.20;;;;;;;30.29;85.31;99238.94;5114920;28;20700;-78
2023/06/20 07:54:55;;;;;;;9.68;8.80;;;;;;;30.39;85.99;99243.91;5115161;28;20607;-79
2023/06/20 07:57:22;;;;;;;10.48;8.70;;;;;;;30.49;84.98;99242.59;5089273;28;20652;-79
2023/06/20 07:59:49;;;;;;;9.18;8.27;;;;;;;30.50;83.41;99245.00;5091268;28;20204;-79
2023/06/20 08:02:16;;;;;;;8.65;7.97;;;;;;;30.71;83.13;99247.41;5108050;28;20200;-79
2023/06/20 08:04:42;;;;;;;9.77;8.52;;;;;;;30.72;82.56;99245.44;5095377;28;20227;-80
2023/06/20 08:07:09;;;;;;;8.90;8.13;;;;;;;30.69;81.31;99240.66;5098276;28;20189;-78
2023/06/20 08:09:36;;;;;;;10.13;8.38;;;;;;;30.85;80.34;99244.13;5107637;28;20203;-78
2023/06/20 08:12:03;;;;;;;9.43;8.50;;;;;;;30.83;80.67;99244.53;5109454;28;20216;-78
2023/06/20 08:14:29;;;;;;;9.50;8.80;;;;;;;30.82;80.33;99234.63;5108984;28;20272;-76
2023/06/20 08:16:57;;;;;;;10.10;9.05;;;;;;;30.77;80.83;99234.91;5100988;28;20216;-75
2023/06/20 08:19:23;;;;;;;10.10;9.00;;;;;;;30.77;80.69;99243.19;5102756;28;20215;-78
2023/06/20 08:21:50;;;;;;;9.20;8.30;;;;;;;30.72;80.53;99232.44;5096619;28;20227;-77
2023/06/20 08:24:16;;;;;;;9.05;8.35;;;;;;;30.88;81.02;99235.13;5108280;28;20256;-77
2023/06/20 08:26:43;;;;;;;9.00;8.20;;;;;;;30.99;80.43;99238.91;5101594;28;20250;-76
2023/06/20 08:29:11;;;;;;;9.48;8.73;;;;;;;30.85;79.83;99233.06;5095343;28;20192;-75
2023/06/20 08:31:37;;;;;;;9.43;8.65;;;;;;;30.65;79.54;99239.78;5079858;28;20219;-79
2023/06/20 08:34:05;;;;;;;9.60;8.80;;;;;;;30.50;81.24;99233.94;5109616;28;20239;-76
2023/06/20 08:36:32;;;;;;;9.40;8.55;;;;;;;30.62;81.87;99235.75;5074557;28;20257;-76
2023/06/20 08:38:59;;;;;;;9.23;8.43;;;;;;;30.78;84.25;99236.50;5096403;28;20244;-76
2023/06/20 08:41:26;;;;;;;9.32;8.52;;;;;;;30.64;81.10;99238.97;5085333;28;20184;-78
2023/06/20 08:43:53;;;;;;;9.57;8.80;;;;;;;30.70;81.05;99231.19;5101610;28;20193;-78
2023/06/20 08:46:20;;;;;;;8.75;7.90;;;;;;;30.91;81.62;99231.63;5072703;28;20188;-78
2023/06/20 08:48:47;;;;;;;9.60;8.80;;;;;;;30.98;81.73;99242.84;5094518;28;20601;-77
2023/06/20 08:51:21;;;;;;;9.88;8.98;;;;;;;31.03;81.52;99237.84;5092024;28;20255;-77
2023/06/20 08:53:49;;;;;;;9.35;8.52;;;;;;;30.77;79.61;99239.63;5099501;28;20183;-76
2023/06/20 08:56:17;;;;;;;8.77;7.97;;;;;;;30.87;80.07;99241.81;5099451;28;20249;-77
2023/06/20 08:58:44;;;;;;;9.27;8.43;;;;;;;31.00;80.20;99234.97;5107734;28;20218;-77
2023/06/20 09:01:11;;;;;;;9.20;8.43;;;;;;;31.18;80.50;99227.84;5095729;28;20200;-77
2023/06/20 09:03:38;;;;;;;8.85;8.05;;;;;;;31.35;79.82;99232.94;5090101;28;20271;-78
2023/06/20 09:06:06;;;;;;;9.20;8.40;;;;;;;31.44;77.77;99229.94;5096139;28;20188;-77
2023/06/20 09:08:39;;;;;;;9.70;8.25;;;;;;;31.54;75.17;99231.28;5097944;28;20196;-81
2023/06/20 09:11:08;;;;;;;8.95;8.25;;;;;;;31.40;74.68;99229.06;5097462;28;20199;-77
2023/06/20 09:13:35;;;;;;;9.82;8.20;;;;;;;31.32;74.27;99219.81;5077861;28;20568;-77
2023/06/20 09:16:09;;;;;;;9.10;8.30;;;;;;;31.39;76.07;99213.63;5097754;28;20192;-78
2023/06/20 09:18:37;;;;;;;8.82;8.02;;;;;;;31.50;78.39;99220.13;5094915;28;20248;-78
2023/06/20 09:21:04;;;;;;;8.80;8.10;;;;;;;31.33;75.49;99210.34;5096066;28;20248;-77
2023/06/20 09:23:31;;;;;;;8.82;8.10;;;;;;;31.42;75.02;99219.22;5100769;28;20270;-77
2023/06/20 09:26:17;;;;;;;8.98;8.18;;;;;;;31.40;75.31;99213.25;5102534;28;20270;-77
2023/06/20 09:28:44;;;;;;;11.80;8.23;;;;;;;31.42;74.97;99222.00;5102310;28;20223;-78
2023/06/20 09:31:13;;;;;;;9.20;8.38;;;;;;;31.61;74.09;99214.81;5099748;28;20192;-77
2023/06/20 09:33:41;;;;;;;9.05;8.10;;;;;;;31.61;74.05;99214.81;5093236;28;20246;-77
2023/06/20 09:36:14;;;;;;;9.43;8.60;;;;;;;31.81;74.96;99214.41;5100171;28;20602;-78
2023/06/20 09:38:45;;;;;;;8.60;8.00;;;;;;;31.75;73.70;99213.09;5088260;28;20196;-77
2023/06/20 09:41:15;;;;;;;9.52;8.60;;;;;;;31.79;75.11;99211.19;5076140;28;20195;-78
2023/06/20 09:43:42;;;;;;;8.90;8.10;;;;;;;31.76;75.13;99213.91;5096592;28;20615;-77
2023/06/20 09:46:09;;;;;;;9.73;8.82;;;;;;;31.79;73.98;99216.72;5093868;28;20274;-77
2023/06/20 09:48:37;;;;;;;9.40;8.60;;;;;;;31.74;75.65;99222.56;5089303;28;20276;-77
2023/06/20 09:51:06;;;;;;;9.32;8.63;;;;;;;31.98;74.74;99221.38;5075540;28;20210;-79
2023/06/20 09:53:37;;;;;;;8.35;7.75;;;;;;;32.09;73.82;99225.13;5092668;28;20265;-78
2023/06/20 09:56:05;;;;;;;9.35;8.45;;;;;;;32.21;73.74;99238.00;5088647;28;20200;-77
2023/06/20 09:58:34;;;;;;;8.52;7.70;;;;;;;32.30;73.58;99238.53;5075822;28;20283;-79
2023/06/20 10:01:01;;;;;;;9.05;8.35;;;;;;;32.32;73.61;99242.53;5075122;28;20200;-77
2023/06/20 10:03:29;;;;;;;8.63;8.02;;;;;;;32.47;71.75;99242.75;5088794;28;20236;-78
2023/06/20 10:05:56;;;;;;;9.55;8.77;;;;;;;32.55;72.11;99239.69;5095955;28;20659;-78
2023/06/20 10:08:24;;;;;;;9.07;8.27;;;;;;;32.66;74.00;99237.09;5090887;28;20681;-78
2023/06/20 10:10:50;;;;;;;8.65;7.88;;;;;;;32.88;72.68;99229.84;5077831;28;20727;-79
2023/06/20 10:13:18;;;;;;;8.98;8.27;;;;;;;33.02;71.15;99230.03;5078525;28;20211;-76
2023/06/20 10:15:48;;;;;;;9.27;8.50;;;;;;;33.17;70.36;99227.06;5089962;28;20667;-78
2023/06/20 10:18:38;;;;;;;9.85;8.95;;;;;;;33.25;70.55;99227.94;5090185;28;20391;-78
2023/06/20 10:21:06;;;;;;;8.70;8.10;;;;;;;33.40;68.46;99231.66;5090404;28;20203;-78
2023/06/20 10:23:38;;;;;;;9.88;9.02;;;;;;;33.51;69.78;99229.78;5076238;28;20690;-79
2023/06/20 10:26:08;;;;;;;9.15;8.55;;;;;;;33.92;67.22;99225.03;5097119;28;20191;-78
2023/06/20 10:28:39;;;;;;;8.57;7.78;;;;;;;34.14;67.14;99223.19;5093667;28;20201;-77
2023/06/20 10:31:06;;;;;;;9.77;8.90;;;;;;;34.22;67.73;99222.88;5098230;28;20191;-77
2023/06/20 10:33:34;;;;;;;9.38;8.63;;;;;;;34.42;65.90;99227.00;5099902;28;20302;-79
2023/06/20 10:36:05;;;;;;;9.07;8.18;;;;;;;34.59;64.99;99227.47;5099296;28;20218;-77
2023/06/20 10:38:40;;;;;;;8.45;7.65;;;;;;;34.84;62.76;99215.31;5097838;28;20268;-77
2023/06/20 10:41:20;;;;;;;8.80;7.90;;;;;;;35.26;62.55;99219.44;5097607;28;20195;-77
2023/06/20 10:44:03;;;;;;;8.25;7.55;;;;;;;35.34;60.06;99221.03;5094969;28;20226;-78
2023/06/20 10:46:36;;;;;;;8.40;7.70;;;;;;;35.29;58.67;99213.06;5093656;28;20192;-78
2023/06/20 10:49:04;;;;;;;7.93;7.28;;;;;;;35.37;58.63;99211.88;5099088;28;20270;-78
2023/06/20 10:51:30;;;;;;;8.50;7.68;;;;;;;35.37;57.70;99208.34;5098440;28;20185;-77
2023/06/20 10:54:10;;;;;;;8.35;7.55;;;;;;;35.60;57.59;99215.09;5090582;28;20197;-78
2023/06/20 10:56:37;;;;;;;7.72;7.22;;;;;;;35.52;55.12;99209.94;5073571;28;20192;-78
2023/06/20 10:59:13;;;;;;;8.20;7.50;;;;;;;35.51;55.85;99214.69;5097770;28;20211;-79
2023/06/20 11:01:39;;;;;;;7.97;7.38;;;;;;;35.48;53.91;99209.13;5096055;28;20196;-78
2023/06/20 11:04:09;;;;;;;8.05;7.35;;;;;;;35.46;54.29;99206.75;5094617;28;20227;-78
2023/06/20 11:06:36;;;;;;;8.52;7.82;;;;;;;35.24;55.95;99211.47;5085100;28;20562;-78
2023/06/20 11:09:03;;;;;;;8.27;7.50;;;;;;;35.09;56.58;99203.47;5106539;28;20195;-79
2023/06/20 11:11:48;;;;;;;8.02;7.30;;;;;;;34.87;56.45;99192.25;5089081;28;20195;-79
2023/06/20 11:14:19;;;;;;;7.97;7.28;;;;;;;34.42;56.79;99193.63;5099514;28;20204;-77
2023/06/20 11:16:47;;;;;;;8.13;7.43;;;;;;;34.14;58.38;99198.97;5090824;28;20199;-78
2023/06/20 11:19:14;;;;;;;8.90;8.20;;;;;;;34.21;58.91;99195.47;5099761;28;20638;-78
2023/06/20 11:22:01;;;;;;;8.77;8.10;;;;;;;34.34;58.48;99191.97;5095413;28;20184;-78
2023/06/20 11:24:30;;;;;;;9.20;8.40;;;;;;;34.06;58.22;99198.13;5102877;28;20658;-79
2023/06/20 11:27:13;;;;;;;8.23;7.63;;;;;;;34.18;60.01;99185.94;5084778;28;20195;-78